Time;durP1;ratioP1;P1;durP2;ratioP2;P2;SDS_P1;SDS_P2;PMS_P1;PMS_P2;Temp;Humidity;BMP_temperature;BMP_pressure;BME280_temperature;BME280_humidity;BME280_pressure;Samples;Min_cycle;Max_cycle;Signal;HPM_P1;HPM_P2
2023/12/12 00:00:21;;;;;;;;;;;5.50;99.90;;;;;;5048337;28;19927;-82
2023/12/12 00:02:46;;;;;;;;;;;5.50;99.90;;;;;;5053767;28;19916;-81
2023/12/12 00:05:13;;;;;;;;;;;5.60;99.90;;;;;;5053290;28;19971;-81
2023/12/12 00:07:39;;;;;;;;;;;5.50;99.90;;;;;;5056090;28;20410;-81
2023/12/12 00:10:05;;;;;;;;;;;5.50;99.90;;;;;;5057304;28;19916;-81
2023/12/12 00:12:31;;;;;;;;;;;5.40;99.90;;;;;;5057098;28;20012;-81
2023/12/12 00:14:57;;;;;;;;;;;5.40;99.90;;;;;;5046392;28;19977;-82
2023/12/12 00:17:22;;;;;;;;;;;5.40;99.90;;;;;;5054369;28;20246;-82
2023/12/12 00:19:48;;;;;;;;;;;5.30;99.90;;;;;;5051560;28;19929;-82
2023/12/12 00:22:14;;;;;;;;;;;5.40;99.90;;;;;;5052407;28;20447;-81
2023/12/12 00:24:39;;;;;;;;;;;5.40;99.90;;;;;;5054724;28;19916;-81
2023/12/12 00:27:05;;;;;;;;;;;5.40;99.90;;;;;;5052836;28;19927;-84
2023/12/12 00:29:35;;;;;;;;;;;5.40;99.90;;;;;;5052586;28;19940;-83
2023/12/12 00:32:01;;;;;;;;;;;5.40;99.90;;;;;;5052079;28;19959;-81
2023/12/12 00:34:26;;;;;;;;;;;5.40;99.90;;;;;;5053069;28;19917;-81
2023/12/12 00:36:52;;;;;;;;;;;5.40;99.90;;;;;;5047122;28;19917;-84
2023/12/12 00:39:18;;;;;;;;;;;5.40;99.90;;;;;;5056357;28;20174;-84
2023/12/12 00:41:43;;;;;;;;;;;5.40;99.90;;;;;;5051651;28;19917;-82
2023/12/12 00:44:09;;;;;;;;;;;5.40;99.90;;;;;;5055627;28;19917;-84
2023/12/12 00:46:35;;;;;;;;;;;5.30;99.90;;;;;;5044396;28;20384;-82
2023/12/12 00:49:01;;;;;;;;;;;5.30;99.90;;;;;;5054814;28;19919;-81
2023/12/12 00:51:26;;;;;;;;;;;5.30;99.90;;;;;;5061696;28;20403;-81
2023/12/12 00:53:52;;;;;;;;;;;5.20;99.90;;;;;;5063815;28;19952;-80
2023/12/12 00:56:17;;;;;;;;;;;5.20;99.90;;;;;;5061047;28;20409;-82
2023/12/12 00:58:43;;;;;;;;;;;5.30;99.90;;;;;;5057680;28;19913;-82
2023/12/12 01:01:10;;;;;;;;;;;5.20;99.90;;;;;;5050194;28;19967;-81
2023/12/12 01:03:36;;;;;;;;;;;5.20;99.90;;;;;;5057437;28;20008;-82
2023/12/12 01:06:02;;;;;;;;;;;5.10;99.90;;;;;;5051051;28;19956;-81
2023/12/12 01:08:27;;;;;;;;;;;5.10;99.90;;;;;;5049530;28;19917;-81
2023/12/12 01:10:53;;;;;;;;;;;5.10;99.90;;;;;;5052670;28;20412;-82
2023/12/12 01:13:19;;;;;;;;;;;5.10;99.90;;;;;;5048881;28;19921;-79
2023/12/12 01:15:44;;;;;;;;;;;5.00;99.90;;;;;;5057664;28;20492;-82
2023/12/12 01:18:10;;;;;;;;;;;4.90;99.90;;;;;;5045348;28;19917;-82
2023/12/12 01:20:35;;;;;;;;;;;4.90;99.90;;;;;;5049495;28;19924;-79
2023/12/12 01:23:37;;;;;;;;;;;4.90;99.90;;;;;;5054067;28;19912;-81
2023/12/12 01:26:02;;;;;;;;;;;4.90;99.90;;;;;;5035227;28;19913;-84
2023/12/12 01:28:28;;;;;;;;;;;4.90;99.90;;;;;;5053848;28;19923;-83
2023/12/12 01:30:54;;;;;;;;;;;4.90;99.90;;;;;;5048459;28;20270;-80
2023/12/12 01:33:21;;;;;;;;;;;4.90;99.90;;;;;;5053826;28;19917;-80
2023/12/12 01:35:47;;;;;;;;;;;4.90;99.90;;;;;;5062159;28;19970;-81
2023/12/12 01:38:13;;;;;;;;;;;4.80;99.90;;;;;;5058437;28;20405;-82
2023/12/12 01:40:38;;;;;;;;;;;4.90;99.90;;;;;;5050525;28;19960;-82
2023/12/12 01:43:05;;;;;;;;;;;4.80;99.90;;;;;;5050177;28;19964;-81
2023/12/12 01:45:30;;;;;;;;;;;4.80;99.90;;;;;;5050947;28;19921;-81
2023/12/12 01:47:56;;;;;;;;;;;4.80;99.90;;;;;;5053429;28;19921;-82
2023/12/12 01:50:21;;;;;;;;;;;4.80;99.90;;;;;;5051815;28;19947;-83
2023/12/12 01:52:47;;;;;;;;;;;4.80;99.90;;;;;;5027096;28;20280;-82
2023/12/12 01:55:13;;;;;;;;;;;4.80;99.90;;;;;;5048086;28;19918;-81
2023/12/12 01:57:38;;;;;;;;;;;4.70;99.90;;;;;;5056887;28;19967;-80
2023/12/12 02:00:05;;;;;;;;;;;4.70;99.90;;;;;;5049857;28;19952;-80
2023/12/12 02:02:38;;;;;;;;;;;4.80;99.90;;;;;;5050280;28;19920;-81
2023/12/12 02:05:03;;;;;;;;;;;4.90;99.90;;;;;;5053131;28;20381;-80
2023/12/12 02:07:30;;;;;;;;;;;4.90;99.90;;;;;;5054106;28;19924;-80
2023/12/12 02:09:55;;;;;;;;;;;4.90;99.90;;;;;;5052226;28;20408;-81
2023/12/12 02:12:21;;;;;;;;;;;4.90;99.90;;;;;;5040562;28;19920;-81
2023/12/12 02:15:06;;;;;;;;;;;4.90;99.90;;;;;;5056868;28;19928;-82
2023/12/12 02:17:31;;;;;;;;;;;5.00;99.90;;;;;;5059355;28;20372;-79
2023/12/12 02:19:57;;;;;;;;;;;5.00;99.90;;;;;;5043483;28;19921;-80
2023/12/12 02:22:23;;;;;;;;;;;5.00;99.90;;;;;;5057303;28;19916;-81
2023/12/12 02:24:48;;;;;;;;;;;5.00;99.90;;;;;;5057229;28;20304;-80
2023/12/12 02:27:14;;;;;;;;;;;4.90;99.90;;;;;;5059439;28;20557;-81
2023/12/12 02:29:40;;;;;;;;;;;4.90;99.90;;;;;;5057444;28;20432;-80
2023/12/12 02:32:05;;;;;;;;;;;4.90;99.90;;;;;;5063377;28;19916;-81
2023/12/12 02:34:31;;;;;;;;;;;4.90;99.90;;;;;;5056761;28;20019;-81
2023/12/12 02:36:57;;;;;;;;;;;4.90;99.90;;;;;;5053456;28;20369;-79
2023/12/12 02:39:23;;;;;;;;;;;4.90;99.90;;;;;;5055643;28;19947;-79
2023/12/12 02:41:49;;;;;;;;;;;4.90;99.90;;;;;;5061875;28;19988;-79
2023/12/12 02:44:14;;;;;;;;;;;4.90;99.90;;;;;;5061611;28;19921;-83
2023/12/12 02:46:40;;;;;;;;;;;4.90;99.90;;;;;;5051817;28;19928;-81
2023/12/12 02:49:06;;;;;;;;;;;4.90;99.90;;;;;;5059252;28;20055;-80
2023/12/12 02:51:32;;;;;;;;;;;4.90;99.90;;;;;;5052580;28;19917;-79
2023/12/12 02:53:57;;;;;;;;;;;4.90;99.90;;;;;;5055718;28;19920;-80
2023/12/12 02:56:23;;;;;;;;;;;4.80;99.90;;;;;;5053127;28;20540;-81
2023/12/12 02:58:49;;;;;;;;;;;4.80;99.90;;;;;;5046950;28;19917;-82
2023/12/12 03:01:14;;;;;;;;;;;4.80;99.90;;;;;;5046781;28;19960;-82
2023/12/12 03:03:40;;;;;;;;;;;4.80;99.90;;;;;;5054339;28;19949;-80
2023/12/12 03:06:07;;;;;;;;;;;4.80;99.90;;;;;;5046498;28;19917;-82
2023/12/12 03:08:32;;;;;;;;;;;4.80;99.90;;;;;;5051508;28;20377;-81
2023/12/12 03:10:58;;;;;;;;;;;4.80;99.90;;;;;;5053939;28;20007;-81
2023/12/12 03:13:24;;;;;;;;;;;4.80;99.90;;;;;;5048767;28;20290;-83
2023/12/12 03:15:49;;;;;;;;;;;4.80;99.90;;;;;;5060040;28;19921;-82
2023/12/12 03:18:15;;;;;;;;;;;4.70;99.90;;;;;;5052729;28;19929;-81
2023/12/12 03:20:40;;;;;;;;;;;4.70;99.90;;;;;;5046121;28;20305;-79
2023/12/12 03:23:06;;;;;;;;;;;4.70;99.90;;;;;;5057820;28;19991;-83
2023/12/12 03:25:32;;;;;;;;;;;4.70;99.90;;;;;;5058473;28;19921;-83
2023/12/12 03:27:57;;;;;;;;;;;4.60;99.90;;;;;;5052804;28;19913;-84
2023/12/12 03:30:23;;;;;;;;;;;4.60;99.90;;;;;;5055505;28;19917;-81
2023/12/12 03:32:49;;;;;;;;;;;4.50;99.90;;;;;;5051369;28;19951;-83
2023/12/12 03:35:15;;;;;;;;;;;4.50;99.90;;;;;;5052203;28;20385;-83
2023/12/12 03:37:40;;;;;;;;;;;4.50;99.90;;;;;;5057813;28;20048;-82
2023/12/12 03:40:07;;;;;;;;;;;4.50;99.90;;;;;;5058384;28;19944;-83
2023/12/12 03:42:32;;;;;;;;;;;4.50;99.90;;;;;;5059331;28;20288;-82
2023/12/12 03:44:58;;;;;;;;;;;4.50;99.90;;;;;;5053246;28;19917;-82
2023/12/12 03:47:23;;;;;;;;;;;4.50;99.90;;;;;;5054632;28;19966;-82
2023/12/12 03:49:49;;;;;;;;;;;4.60;99.90;;;;;;5055799;28;19916;-82
2023/12/12 03:52:15;;;;;;;;;;;4.60;99.90;;;;;;5053427;28;19921;-82
2023/12/12 03:54:40;;;;;;;;;;;4.60;99.90;;;;;;5063038;28;20523;-85
2023/12/12 03:57:06;;;;;;;;;;;4.60;99.90;;;;;;5042430;28;19928;-83
2023/12/12 03:59:31;;;;;;;;;;;4.60;99.90;;;;;;5057913;28;19931;-81
2023/12/12 04:01:57;;;;;;;;;;;4.70;99.90;;;;;;5053301;28;19913;-82
2023/12/12 04:04:23;;;;;;;;;;;4.70;99.90;;;;;;5053962;28;19923;-82
2023/12/12 04:06:48;;;;;;;;;;;4.70;99.90;;;;;;5056562;28;19924;-82
2023/12/12 04:09:15;;;;;;;;;;;4.80;99.90;;;;;;5057867;28;19927;-82
2023/12/12 04:11:40;;;;;;;;;;;4.80;99.90;;;;;;5063734;28;19912;-83
2023/12/12 04:14:06;;;;;;;;;;;4.80;99.90;;;;;;5051316;28;20007;-81
2023/12/12 04:16:32;;;;;;;;;;;4.90;99.90;;;;;;5052759;28;19912;-83
2023/12/12 04:18:57;;;;;;;;;;;4.90;99.90;;;;;;5050032;28;20195;-81
2023/12/12 04:21:44;;;;;;;;;;;5.00;99.90;;;;;;5053627;28;19994;-82
2023/12/12 04:24:10;;;;;;;;;;;5.00;99.90;;;;;;5054157;28;19917;-81
2023/12/12 04:26:36;;;;;;;;;;;5.00;99.90;;;;;;5049614;28;19932;-82
2023/12/12 04:29:04;;;;;;;;;;;5.10;99.90;;;;;;5047048;28;19924;-82
2023/12/12 04:31:30;;;;;;;;;;;5.10;99.90;;;;;;5052546;28;19923;-82
2023/12/12 04:33:55;;;;;;;;;;;5.10;99.90;;;;;;5059624;28;19925;-82
2023/12/12 04:36:21;;;;;;;;;;;5.10;99.90;;;;;;5051745;28;20289;-82
2023/12/12 04:38:46;;;;;;;;;;;5.10;99.90;;;;;;5057195;28;19999;-81
2023/12/12 04:41:13;;;;;;;;;;;5.10;99.90;;;;;;5056388;28;20414;-81
2023/12/12 04:43:38;;;;;;;;;;;5.10;99.90;;;;;;5058343;28;19917;-83
2023/12/12 04:46:05;;;;;;;;;;;5.10;99.90;;;;;;5040501;28;20369;-81
2023/12/12 04:48:30;;;;;;;;;;;5.10;99.90;;;;;;5056903;28;19920;-85
2023/12/12 04:50:56;;;;;;;;;;;5.10;99.90;;;;;;5047967;28;19917;-79
2023/12/12 04:53:22;;;;;;;;;;;5.10;99.90;;;;;;5047781;28;20342;-82
2023/12/12 04:55:48;;;;;;;;;;;5.10;99.90;;;;;;5045654;28;19913;-83
2023/12/12 04:58:14;;;;;;;;;;;5.10;99.90;;;;;;5053958;28;19989;-83
2023/12/12 05:00:39;;;;;;;;;;;5.10;99.90;;;;;;5061497;28;19921;-80
2023/12/12 05:03:05;;;;;;;;;;;5.10;99.90;;;;;;5063710;28;19963;-82
2023/12/12 05:05:31;;;;;;;;;;;5.10;99.90;;;;;;5059756;28;19925;-82
2023/12/12 05:07:56;;;;;;;;;;;5.20;99.90;;;;;;5057351;28;19929;-82
2023/12/12 05:10:22;;;;;;;;;;;5.20;99.90;;;;;;5051163;28;19921;-81
2023/12/12 05:12:48;;;;;;;;;;;5.20;99.90;;;;;;5058344;28;19931;-82
2023/12/12 05:15:14;;;;;;;;;;;5.20;99.90;;;;;;5060153;28;19916;-82
2023/12/12 05:17:40;;;;;;;;;;;5.20;99.90;;;;;;5059044;28;20019;-81
2023/12/12 05:20:05;;;;;;;;;;;5.20;99.90;;;;;;5062293;28;19920;-82
2023/12/12 05:22:31;;;;;;;;;;;5.10;99.90;;;;;;5066218;28;19909;-81
2023/12/12 05:24:57;;;;;;;;;;;5.10;99.90;;;;;;5067484;28;19939;-81
2023/12/12 05:27:23;;;;;;;;;;;5.10;99.90;;;;;;5055650;28;19932;-80
2023/12/12 05:29:48;;;;;;;;;;;5.10;99.90;;;;;;5078029;28;19917;-79
2023/12/12 05:32:14;;;;;;;;;;;5.10;99.90;;;;;;5072536;28;19916;-80
2023/12/12 05:34:40;;;;;;;;;;;5.20;99.90;;;;;;5063555;28;19984;-80
2023/12/12 05:37:08;;;;;;;;;;;5.10;99.90;;;;;;5061090;28;19914;-80
2023/12/12 05:39:33;;;;;;;;;;;5.10;99.90;;;;;;5058761;28;19956;-81
2023/12/12 05:41:59;;;;;;;;;;;5.10;99.90;;;;;;5061731;28;19913;-80
2023/12/12 05:44:25;;;;;;;;;;;5.10;99.90;;;;;;5062636;28;19928;-82
2023/12/12 05:46:51;;;;;;;;;;;5.10;99.90;;;;;;5060809;28;20455;-81
2023/12/12 05:49:16;;;;;;;;;;;5.10;99.90;;;;;;5060245;28;19916;-78
2023/12/12 05:51:43;;;;;;;;;;;5.10;99.90;;;;;;5061984;28;19977;-79
2023/12/12 05:54:11;;;;;;;;;;;5.10;99.90;;;;;;5072705;28;19945;-82
2023/12/12 05:56:38;;;;;;;;;;;5.10;99.90;;;;;;5068875;28;19924;-81
2023/12/12 05:59:04;;;;;;;;;;;5.10;99.90;;;;;;5059935;28;19917;-82
2023/12/12 06:01:29;;;;;;;;;;;5.10;99.90;;;;;;5062789;28;19974;-82
2023/12/12 06:03:55;;;;;;;;;;;5.10;99.90;;;;;;5063730;28;19920;-81
2023/12/12 06:06:21;;;;;;;;;;;5.00;99.90;;;;;;5061470;28;19963;-82
2023/12/12 06:08:47;;;;;;;;;;;5.00;99.90;;;;;;5060350;28;19982;-80
2023/12/12 06:11:12;;;;;;;;;;;5.10;99.90;;;;;;5056354;28;19951;-81
2023/12/12 06:13:38;;;;;;;;;;;5.00;99.90;;;;;;5058125;28;19913;-81
2023/12/12 06:16:04;;;;;;;;;;;5.00;99.90;;;;;;5053514;28;19917;-81
2023/12/12 06:18:29;;;;;;;;;;;5.00;99.90;;;;;;5059051;28;19916;-81
2023/12/12 06:20:55;;;;;;;;;;;5.00;99.90;;;;;;5057894;28;19989;-81
2023/12/12 06:23:20;;;;;;;;;;;5.00;99.90;;;;;;5055409;28;19912;-80
2023/12/12 06:25:47;;;;;;;;;;;5.00;99.90;;;;;;5053850;28;19948;-81
2023/12/12 06:28:12;;;;;;;;;;;5.00;99.90;;;;;;5052148;28;19940;-82
2023/12/12 06:30:38;;;;;;;;;;;5.10;99.90;;;;;;5059193;28;19917;-81
2023/12/12 06:33:04;;;;;;;;;;;5.10;99.90;;;;;;5055158;28;20420;-84
2023/12/12 06:35:30;;;;;;;;;;;5.00;99.90;;;;;;5055411;28;19917;-82
2023/12/12 06:37:56;;;;;;;;;;;5.10;99.90;;;;;;5055865;28;19916;-82
2023/12/12 06:40:22;;;;;;;;;;;5.10;99.90;;;;;;5055970;28;20433;-81
2023/12/12 06:42:47;;;;;;;;;;;5.10;99.90;;;;;;5053633;28;19916;-83
2023/12/12 06:45:13;;;;;;;;;;;5.10;99.90;;;;;;5053572;28;20373;-82
2023/12/12 06:47:42;;;;;;;;;;;5.10;99.90;;;;;;5061246;28;19936;-82
2023/12/12 06:50:08;;;;;;;;;;;5.00;99.90;;;;;;5054653;28;19920;-84
2023/12/12 06:52:34;;;;;;;;;;;5.00;99.90;;;;;;5052428;28;19913;-83
2023/12/12 06:54:59;;;;;;;;;;;5.00;99.90;;;;;;5053951;28;19928;-82
2023/12/12 06:57:25;;;;;;;;;;;5.00;99.90;;;;;;5050174;28;19919;-80
2023/12/12 06:59:51;;;;;;;;;;;4.90;99.90;;;;;;5053652;28;19944;-82
2023/12/12 07:02:17;;;;;;;;;;;4.90;99.90;;;;;;5056108;28;19917;-81
2023/12/12 07:04:43;;;;;;;;;;;4.90;99.90;;;;;;5062016;28;19987;-80
2023/12/12 07:07:09;;;;;;;;;;;4.90;99.90;;;;;;5055911;28;19913;-83
2023/12/12 07:09:35;;;;;;;;;;;4.90;99.90;;;;;;5051105;28;19978;-83
2023/12/12 07:12:00;;;;;;;;;;;4.90;99.90;;;;;;5051920;28;19917;-85
2023/12/12 07:14:26;;;;;;;;;;;4.90;99.90;;;;;;5053438;28;19916;-84
2023/12/12 07:16:52;;;;;;;;;;;4.90;99.90;;;;;;5040827;28;19921;-83
2023/12/12 07:19:20;;;;;;;;;;;4.80;99.90;;;;;;5051343;28;19917;-82
2023/12/12 07:21:46;;;;;;;;;;;4.80;99.90;;;;;;5053475;28;19935;-82
2023/12/12 07:24:14;;;;;;;;;;;4.80;99.90;;;;;;5052419;28;19960;-81
2023/12/12 07:26:46;;;;;;;;;;;4.90;99.90;;;;;;5056049;28;19917;-81
2023/12/12 07:29:11;;;;;;;;;;;4.80;99.90;;;;;;5056408;28;19927;-81
2023/12/12 07:31:37;;;;;;;;;;;4.80;99.90;;;;;;5051835;28;19917;-81
2023/12/12 07:34:05;;;;;;;;;;;4.80;99.90;;;;;;5055790;28;19917;-80
2023/12/12 07:36:31;;;;;;;;;;;4.80;99.90;;;;;;5057937;28;20431;-82
2023/12/12 07:39:00;;;;;;;;;;;4.80;99.90;;;;;;5048810;28;19912;-83
2023/12/12 07:41:26;;;;;;;;;;;4.70;99.90;;;;;;5054371;28;20267;-78
2023/12/12 07:43:51;;;;;;;;;;;4.60;99.90;;;;;;5056733;28;19916;-83
2023/12/12 07:46:17;;;;;;;;;;;4.60;99.90;;;;;;5030960;28;20397;-80
2023/12/12 07:48:42;;;;;;;;;;;4.60;99.90;;;;;;5053539;28;19925;-81
2023/12/12 07:51:09;;;;;;;;;;;4.60;99.90;;;;;;5050932;28;19916;-82
2023/12/12 07:53:35;;;;;;;;;;;4.50;99.90;;;;;;5053551;28;19927;-82
2023/12/12 07:56:01;;;;;;;;;;;4.50;99.90;;;;;;5033594;28;19917;-79
2023/12/12 07:58:27;;;;;;;;;;;4.40;99.90;;;;;;5058219;28;20022;-82
2023/12/12 08:00:53;;;;;;;;;;;4.40;99.90;;;;;;5053294;28;19929;-83
2023/12/12 08:03:18;;;;;;;;;;;4.30;99.90;;;;;;5045333;28;21945;-84
2023/12/12 08:05:44;;;;;;;;;;;4.30;99.90;;;;;;5046735;28;19921;-84
2023/12/12 08:08:10;;;;;;;;;;;4.30;99.90;;;;;;5056307;28;19913;-82
2023/12/12 08:10:36;;;;;;;;;;;4.30;99.90;;;;;;5046149;28;19921;-82
2023/12/12 08:13:03;;;;;;;;;;;4.40;99.90;;;;;;5052795;28;19917;-80
2023/12/12 08:15:29;;;;;;;;;;;4.40;99.90;;;;;;5057710;28;19944;-82
2023/12/12 08:17:54;;;;;;;;;;;4.50;99.90;;;;;;5053806;28;20357;-82
2023/12/12 08:20:20;;;;;;;;;;;4.60;99.90;;;;;;5051986;28;20268;-80
2023/12/12 08:22:46;;;;;;;;;;;4.60;99.90;;;;;;5053320;28;19927;-81
2023/12/12 08:25:11;;;;;;;;;;;4.70;99.90;;;;;;5055372;28;19921;-81
2023/12/12 08:27:37;;;;;;;;;;;4.80;99.90;;;;;;5051627;28;19952;-82
2023/12/12 08:30:05;;;;;;;;;;;4.80;99.90;;;;;;5052326;28;19970;-80
2023/12/12 08:32:31;;;;;;;;;;;4.90;99.90;;;;;;5055669;28;19980;-80
2023/12/12 08:34:57;;;;;;;;;;;4.90;99.90;;;;;;5052485;28;19921;-84
2023/12/12 08:37:22;;;;;;;;;;;5.00;99.90;;;;;;5051024;28;20003;-84
2023/12/12 08:39:48;;;;;;;;;;;5.00;99.90;;;;;;5057465;28;19924;-83
2023/12/12 08:42:14;;;;;;;;;;;5.10;99.90;;;;;;5050545;28;20334;-81
2023/12/12 08:44:40;;;;;;;;;;;5.20;99.90;;;;;;5032388;28;19917;-84
2023/12/12 08:47:06;;;;;;;;;;;5.20;99.90;;;;;;5054981;28;20477;-85
2023/12/12 08:49:34;;;;;;;;;;;5.20;99.90;;;;;;5059497;28;19920;-82
2023/12/12 08:51:59;;;;;;;;;;;5.30;99.90;;;;;;5046343;28;19951;-78
2023/12/12 08:54:25;;;;;;;;;;;5.30;99.90;;;;;;5054831;28;19917;-82
2023/12/12 08:56:52;;;;;;;;;;;5.30;99.90;;;;;;5030214;28;19938;-85
2023/12/12 08:59:21;;;;;;;;;;;5.30;99.90;;;;;;5038184;28;19917;-80
2023/12/12 09:01:46;;;;;;;;;;;5.40;99.90;;;;;;5051446;28;19921;-81
2023/12/12 09:04:14;;;;;;;;;;;5.40;99.90;;;;;;5053993;28;19923;-80
2023/12/12 09:06:40;;;;;;;;;;;5.40;99.90;;;;;;5046839;28;19928;-85
2023/12/12 09:09:06;;;;;;;;;;;5.30;99.90;;;;;;5052592;28;19921;-83
2023/12/12 09:11:33;;;;;;;;;;;5.30;99.90;;;;;;5033244;28;19978;-82
2023/12/12 09:13:59;;;;;;;;;;;5.30;99.90;;;;;;5046204;28;20446;-83
2023/12/12 09:16:24;;;;;;;;;;;5.40;99.90;;;;;;5060688;28;19916;-82
2023/12/12 09:18:50;;;;;;;;;;;5.40;99.90;;;;;;5054478;28;19974;-83
2023/12/12 09:21:16;;;;;;;;;;;5.50;99.90;;;;;;5052628;28;20015;-82
2023/12/12 09:23:41;;;;;;;;;;;5.60;99.90;;;;;;5028079;28;19913;-83
2023/12/12 09:26:14;;;;;;;;;;;5.70;99.90;;;;;;5049685;28;19921;-81
2023/12/12 09:28:41;;;;;;;;;;;5.70;99.90;;;;;;5036442;28;20287;-83
2023/12/12 09:31:07;;;;;;;;;;;5.80;99.90;;;;;;5056044;28;20398;-84
2023/12/12 09:33:34;;;;;;;;;;;5.90;99.90;;;;;;5053277;28;19917;-82
2023/12/12 09:36:00;;;;;;;;;;;6.00;99.90;;;;;;5053732;28;19913;-81
2023/12/12 09:38:25;;;;;;;;;;;6.00;99.90;;;;;;5059677;28;19914;-83
2023/12/12 09:40:51;;;;;;;;;;;6.10;99.90;;;;;;5051364;28;19974;-82
2023/12/12 09:43:18;;;;;;;;;;;6.10;99.90;;;;;;5049967;28;19913;-85
2023/12/12 09:45:46;;;;;;;;;;;6.30;99.90;;;;;;5054332;28;20430;-84
2023/12/12 09:48:12;;;;;;;;;;;6.30;99.90;;;;;;5051630;28;19917;-84
2023/12/12 09:50:38;;;;;;;;;;;6.40;99.90;;;;;;5051319;28;19925;-82
2023/12/12 09:53:04;;;;;;;;;;;6.50;99.90;;;;;;5052927;28;20031;-83
2023/12/12 09:55:30;;;;;;;;;;;6.60;99.90;;;;;;5050686;28;20361;-84
2023/12/12 09:57:56;;;;;;;;;;;6.60;99.90;;;;;;5031095;28;19991;-83
2023/12/12 10:00:22;;;;;;;;;;;6.60;99.90;;;;;;5052875;28;19970;-83
2023/12/12 10:02:48;;;;;;;;;;;6.60;99.90;;;;;;5049558;28;20359;-83
2023/12/12 10:05:14;;;;;;;;;;;6.70;99.90;;;;;;5038616;28;19951;-84
2023/12/12 10:07:42;;;;;;;;;;;6.70;99.90;;;;;;5049766;28;20419;-84
2023/12/12 10:10:16;;;;;;;;;;;6.80;99.90;;;;;;5055762;28;20345;-84
2023/12/12 10:12:41;;;;;;;;;;;6.90;99.90;;;;;;5058727;28;19913;-82
2023/12/12 10:15:21;;;;;;;;;;;6.90;99.90;;;;;;5058674;28;19920;-82
2023/12/12 10:17:46;;;;;;;;;;;7.00;99.90;;;;;;5053727;28;19912;-81
2023/12/12 10:20:12;;;;;;;;;;;6.90;99.90;;;;;;5054039;28;19932;-83
2023/12/12 10:22:38;;;;;;;;;;;6.90;99.90;;;;;;5058183;28;19920;-83
2023/12/12 10:25:07;;;;;;;;;;;6.80;99.90;;;;;;5038068;28;19925;-84
2023/12/12 10:27:33;;;;;;;;;;;6.90;99.90;;;;;;5030323;28;20247;-82
2023/12/12 10:30:02;;;;;;;;;;;6.90;99.90;;;;;;5057437;28;19917;-83
2023/12/12 10:32:29;;;;;;;;;;;7.00;99.90;;;;;;5057573;28;19913;-82
2023/12/12 10:34:55;;;;;;;;;;;6.90;99.90;;;;;;5066359;28;20385;-82
2023/12/12 10:37:22;;;;;;;;;;;7.00;99.90;;;;;;5053825;28;19921;-83
2023/12/12 10:39:49;;;;;;;;;;;7.00;99.90;;;;;;5054091;28;19986;-82
2023/12/12 10:42:15;;;;;;;;;;;7.00;99.90;;;;;;5041426;28;19917;-82
2023/12/12 10:44:45;;;;;;;;;;;7.00;99.90;;;;;;5058695;28;20271;-81
2023/12/12 10:47:13;;;;;;;;;;;7.00;99.90;;;;;;5052162;28;19942;-83
2023/12/12 10:49:41;;;;;;;;;;;7.10;99.90;;;;;;5053711;28;19935;-84
2023/12/12 10:52:08;;;;;;;;;;;7.10;99.90;;;;;;5053157;28;19947;-85
2023/12/12 10:54:35;;;;;;;;;;;7.20;99.90;;;;;;5058506;28;19926;-83
2023/12/12 10:57:01;;;;;;;;;;;7.20;99.90;;;;;;5056838;28;19927;-81
2023/12/12 10:59:28;;;;;;;;;;;7.30;99.90;;;;;;5049321;28;19913;-82
2023/12/12 11:01:54;;;;;;;;;;;7.30;99.90;;;;;;5045130;28;19990;-83
2023/12/12 11:04:24;;;;;;;;;;;7.30;99.90;;;;;;5053574;28;20060;-81
2023/12/12 11:06:50;;;;;;;;;;;7.30;99.90;;;;;;5034125;28;19925;-83
2023/12/12 11:09:16;;;;;;;;;;;7.30;99.90;;;;;;5054386;28;20226;-83
2023/12/12 11:11:44;;;;;;;;;;;7.40;99.90;;;;;;5049546;28;19921;-82
2023/12/12 11:14:09;;;;;;;;;;;7.50;99.90;;;;;;5050704;28;20328;-83
2023/12/12 11:16:36;;;;;;;;;;;7.50;99.90;;;;;;5049601;28;19923;-84
2023/12/12 11:19:03;;;;;;;;;;;7.60;99.90;;;;;;5049958;28;20003;-82
2023/12/12 11:21:50;;;;;;;;;;;7.70;99.90;;;;;;5053341;28;20391;-82
2023/12/12 11:24:16;;;;;;;;;;;7.70;99.90;;;;;;5052230;28;20273;-81
2023/12/12 11:26:44;;;;;;;;;;;7.70;99.90;;;;;;5055979;28;19912;-82
2023/12/12 11:29:10;;;;;;;;;;;7.70;99.90;;;;;;5052965;28;19920;-81
2023/12/12 11:31:36;;;;;;;;;;;7.70;99.90;;;;;;5049073;28;19923;-81
2023/12/12 11:34:05;;;;;;;;;;;7.80;99.90;;;;;;5056752;28;20385;-81
2023/12/12 11:36:52;;;;;;;;;;;7.80;99.90;;;;;;5052495;28;19924;-80
2023/12/12 11:39:30;;;;;;;;;;;7.80;99.90;;;;;;5052364;28;19920;-81
2023/12/12 11:41:57;;;;;;;;;;;7.90;99.90;;;;;;5047502;28;19967;-79
2023/12/12 11:44:22;;;;;;;;;;;7.90;99.90;;;;;;5054474;28;19969;-80
2023/12/12 11:46:50;;;;;;;;;;;7.90;99.90;;;;;;5052127;28;19920;-79
2023/12/12 11:49:19;;;;;;;;;;;7.80;99.90;;;;;;5055421;28;19928;-82
2023/12/12 11:51:46;;;;;;;;;;;7.80;99.90;;;;;;5053532;28;19997;-81
2023/12/12 11:54:24;;;;;;;;;;;7.80;99.90;;;;;;5051983;28;19920;-80
2023/12/12 11:56:57;;;;;;;;;;;7.80;99.90;;;;;;5048661;28;20355;-82
2023/12/12 11:59:27;;;;;;;;;;;7.90;99.90;;;;;;5047920;28;19917;-80
2023/12/12 12:01:53;;;;;;;;;;;7.90;99.90;;;;;;5050582;28;19920;-82
2023/12/12 12:04:19;;;;;;;;;;;8.00;99.90;;;;;;5036705;28;19920;-82
2023/12/12 12:06:45;;;;;;;;;;;8.00;99.90;;;;;;5052412;28;20408;-83
2023/12/12 12:09:12;;;;;;;;;;;8.10;99.90;;;;;;5050418;28;19921;-81
2023/12/12 12:11:38;;;;;;;;;;;8.10;99.90;;;;;;5027899;28;19917;-83
2023/12/12 12:14:03;;;;;;;;;;;8.10;99.90;;;;;;5046639;28;20344;-81
2023/12/12 12:16:29;;;;;;;;;;;8.20;99.90;;;;;;5054192;28;19971;-81
2023/12/12 12:18:55;;;;;;;;;;;8.20;99.90;;;;;;5052723;28;19921;-79
2023/12/12 12:21:25;;;;;;;;;;;8.20;99.90;;;;;;5050720;28;19978;-81
2023/12/12 12:23:50;;;;;;;;;;;8.10;99.90;;;;;;5050975;28;19967;-81
2023/12/12 12:26:17;;;;;;;;;;;8.10;99.90;;;;;;5056580;28;19917;-79
2023/12/12 12:28:42;;;;;;;;;;;8.10;99.90;;;;;;5057863;28;19952;-80
2023/12/12 12:31:08;;;;;;;;;;;8.10;99.90;;;;;;5047201;28;19917;-80
2023/12/12 12:33:35;;;;;;;;;;;8.10;99.90;;;;;;5050687;28;20007;-82
2023/12/12 12:36:07;;;;;;;;;;;8.10;99.90;;;;;;5055286;28;19999;-81
2023/12/12 12:38:32;;;;;;;;;;;8.10;99.90;;;;;;5052986;28;19917;-82
2023/12/12 12:40:58;;;;;;;;;;;8.10;99.90;;;;;;5051178;28;19916;-80
2023/12/12 12:43:24;;;;;;;;;;;8.10;99.90;;;;;;5056446;28;19913;-80
2023/12/12 12:45:51;;;;;;;;;;;8.00;99.90;;;;;;5044320;28;20007;-80
2023/12/12 12:48:17;;;;;;;;;;;7.90;99.90;;;;;;5048576;28;19970;-80
2023/12/12 12:50:46;;;;;;;;;;;7.90;99.90;;;;;;5056819;28;19917;-83
2023/12/12 12:53:12;;;;;;;;;;;7.80;99.90;;;;;;5048674;28;19966;-78
2023/12/12 12:55:40;;;;;;;;;;;7.90;99.90;;;;;;5047870;28;19917;-81
2023/12/12 12:58:07;;;;;;;;;;;7.80;99.90;;;;;;5055371;28;19932;-81
2023/12/12 13:00:32;;;;;;;;;;;7.80;99.90;;;;;;5050856;28;19988;-80
2023/12/12 13:02:58;;;;;;;;;;;7.80;99.90;;;;;;5054214;28;19948;-81
2023/12/12 13:05:26;;;;;;;;;;;7.80;99.90;;;;;;5051587;28;19917;-80
2023/12/12 13:07:52;;;;;;;;;;;7.80;99.90;;;;;;5051398;28;19948;-82
2023/12/12 13:10:18;;;;;;;;;;;7.70;99.90;;;;;;5052383;28;19930;-82
2023/12/12 13:12:44;;;;;;;;;;;7.80;99.90;;;;;;5046988;28;20007;-79
2023/12/12 13:15:10;;;;;;;;;;;7.80;99.90;;;;;;5050702;28;19913;-82
2023/12/12 13:17:35;;;;;;;;;;;7.70;99.90;;;;;;5062600;28;19927;-80
2023/12/12 13:20:09;;;;;;;;;;;7.80;99.90;;;;;;5059640;28;19924;-81
2023/12/12 13:22:44;;;;;;;;;;;7.70;99.90;;;;;;5052862;28;19921;-81
2023/12/12 13:25:10;;;;;;;;;;;7.80;99.90;;;;;;5041830;28;19913;-82
2023/12/12 13:27:39;;;;;;;;;;;7.80;99.90;;;;;;5047251;28;19962;-82
2023/12/12 13:30:09;;;;;;;;;;;7.80;99.90;;;;;;5047302;28;19913;-82
2023/12/12 13:32:39;;;;;;;;;;;7.80;99.90;;;;;;5047232;28;19917;-81
2023/12/12 13:35:06;;;;;;;;;;;7.80;99.90;;;;;;5046112;28;19920;-81
2023/12/12 13:37:31;;;;;;;;;;;7.70;99.90;;;;;;5046965;28;19960;-80
2023/12/12 13:39:57;;;;;;;;;;;7.70;99.90;;;;;;5047329;28;20013;-80
2023/12/12 13:42:23;;;;;;;;;;;7.70;99.90;;;;;;5051732;28;20038;-80
2023/12/12 13:44:49;;;;;;;;;;;7.80;99.90;;;;;;5069525;28;19924;-81
2023/12/12 13:47:15;;;;;;;;;;;7.80;99.90;;;;;;5064828;28;19913;-81
2023/12/12 13:49:41;;;;;;;;;;;7.70;99.90;;;;;;5067035;28;19935;-81
2023/12/12 13:52:07;;;;;;;;;;;7.70;99.90;;;;;;5068183;28;19941;-82
2023/12/12 13:54:33;;;;;;;;;;;7.60;99.90;;;;;;5065485;28;19992;-80
2023/12/12 13:56:59;;;;;;;;;;;7.60;99.90;;;;;;5066544;28;19917;-80
2023/12/12 13:59:25;;;;;;;;;;;7.60;99.90;;;;;;5064567;28;19924;-81
2023/12/12 14:01:50;;;;;;;;;;;7.60;99.90;;;;;;5066830;28;19917;-80
2023/12/12 14:04:16;;;;;;;;;;;7.60;99.90;;;;;;5065405;28;19924;-80
2023/12/12 14:06:42;;;;;;;;;;;7.60;99.90;;;;;;5060528;28;19949;-79
2023/12/12 14:09:09;;;;;;;;;;;7.50;99.90;;;;;;5063226;28;19917;-80
2023/12/12 14:11:35;;;;;;;;;;;7.40;99.90;;;;;;5060973;28;20438;-78
2023/12/12 14:14:01;;;;;;;;;;;7.30;99.90;;;;;;5053168;28;19963;-78
2023/12/12 14:16:30;;;;;;;;;;;7.30;99.90;;;;;;5059431;28;19920;-82
2023/12/12 14:18:56;;;;;;;;;;;7.30;99.90;;;;;;5051527;28;19955;-79
2023/12/12 14:21:22;;;;;;;;;;;7.30;99.90;;;;;;5056124;28;19987;-76
2023/12/12 14:23:48;;;;;;;;;;;7.30;99.90;;;;;;5057724;28;19935;-78
2023/12/12 14:26:14;;;;;;;;;;;7.30;99.90;;;;;;5056208;28;19970;-80